Promontory, Utah
Current Conditions -  °F | °C
As of 11:35 AM on Thursday 27 Nov 2014 (Local Time) from KBMC Reporting Station
Clear Clear  
Wind Chill: 48°   Ceiling: Unl
Heat Index: 48°   Visibility: 10mi
Dew Point: 33°   Wind: 0mph
Humidity: 57%   Direction: NA
Pressure: 30.29"   Gusts: NA
Location:  41.5038°N, 112.48°W
Report Text: KBMC 271835Z AUTO 00000KT 10SM CLR 09/01 A3029 RMK AO1 T00880008
Loading
Personal Weather Stations






























Interactive Weather Map New forecast layout! Learn more

10-Day Weather Forecast

Advertisements
Track Severe Weather on mobile